Thor Maximus — 9V2805 — position and weather

sailwx.info

Track history (hours):
 
Tides and Currents Weather Stations Pressure Air Temp Water Temp Dewpoint Dewpoint Depression Visibility Wind Speed Wind Dir Waves Ship Positions

Thor Maximus

Last reported at 2018-Jan-06 10:42 UTC. Time now 2018-Jan-21 00:56 UTC.
Position N 01°16' E 104°04'.
Warning: this ship's position is 14 days out of date.

Length 190 m; draft 12.5 m.

Type: Cargo ship. MMSI: 564756000.

Date/timePositionNaut miles runAvg speedWind from/ knotsBaromVisibWave heightAir tempDewpointWater temp
2018-Jan-06 10:42N 01°16' E 104°04'3 6.9
2018-Jan-06 10:14N 01°17' E 104°01'0 0.6
2018-Jan-06 09:47N 01°17' E 104°01'0 0.0
2018-Jan-06 03:50N 01°17' E 104°00'0 0.1
2018-Jan-06 03:23N 01°17' E 104°00'0 0.1
2018-Jan-06 02:56N 01°17' E 104°00'1 2.0
2018-Jan-06 02:24N 01°17' E 103°59'2 5.9
2018-Jan-06 01:58N 01°16' E 103°57'3 5.6
2018-Jan-06 01:30N 01°14' E 103°56'5 9.4
2018-Jan-06 01:01N 01°11' E 103°52'4 8.8
2018-Jan-06 00:31N 01°09' E 103°48'5 9.6
2018-Jan-06 00:01N 01°06' E 103°44'5 9.5
2018-Jan-05 23:30N 01°03' E 103°40'4 8.3
2018-Jan-05 22:59N 01°04' E 103°36'510.0
2018-Jan-05 22:30N 01°07' E 103°32'5 9.5
2018-Jan-05 22:00N 01°10' E 103°28'5 9.5
2018-Jan-05 21:30N 01°12' E 103°24'5 9.5
2018-Jan-05 20:57N 01°16' E 103°20'  
Track history (hours):
 
Tides and Currents Weather Stations Pressure Air Temp Water Temp Dewpoint Dewpoint Depression Visibility Wind Speed Wind Dir Waves Ship Positions

Thor Maximus

Last reported at 2018-Jan-06 10:42 UTC. Time now 2018-Jan-21 00:56 UTC.
Position N 01°16' E 104°04'.
Warning: this ship's position is 14 days out of date.

Length 190 m; draft 12.5 m.

Type: Cargo ship. MMSI: 564756000.

Date/timePositionNaut miles runAvg speedWind from/ knotsBaromVisibWave heightAir tempDewpointWater temp
2018-Jan-06 10:42N 01°16' E 104°04'3 6.9
2018-Jan-06 10:14N 01°17' E 104°01'0 0.6
2018-Jan-06 09:47N 01°17' E 104°01'0 0.0
2018-Jan-06 03:50N 01°17' E 104°00'0 0.1
2018-Jan-06 03:23N 01°17' E 104°00'0 0.1
2018-Jan-06 02:56N 01°17' E 104°00'1 2.0
2018-Jan-06 02:24N 01°17' E 103°59'2 5.9
2018-Jan-06 01:58N 01°16' E 103°57'3 5.6
2018-Jan-06 01:30N 01°14' E 103°56'5 9.4
2018-Jan-06 01:01N 01°11' E 103°52'4 8.8
2018-Jan-06 00:31N 01°09' E 103°48'5 9.6
2018-Jan-06 00:01N 01°06' E 103°44'5 9.5
2018-Jan-05 23:30N 01°03' E 103°40'4 8.3
2018-Jan-05 22:59N 01°04' E 103°36'510.0
2018-Jan-05 22:30N 01°07' E 103°32'5 9.5
2018-Jan-05 22:00N 01°10' E 103°28'5 9.5
2018-Jan-05 21:30N 01°12' E 103°24'5 9.5
2018-Jan-05 20:57N 01°16' E 103°20'  

Dump ship's entire track history